sensor_id;sensor_type;location;lat;lon;timestamp;temperature;humidity
8248;DHT22;4164;49.844;8.830;2023-04-03T00:00:13;3.80;99.90
8248;DHT22;4164;49.844;8.830;2023-04-03T00:02:39;3.60;99.90
8248;DHT22;4164;49.844;8.830;2023-04-03T00:05:06;3.60;99.90
8248;DHT22;4164;49.844;8.830;2023-04-03T00:07:31;3.60;99.90
8248;DHT22;4164;49.844;8.830;2023-04-03T00:09:57;3.50;99.90
8248;DHT22;4164;49.844;8.830;2023-04-03T00:12:23;3.50;99.90
8248;DHT22;4164;49.844;8.830;2023-04-03T00:14:48;3.40;99.90
8248;DHT22;4164;49.844;8.830;2023-04-03T00:17:14;3.30;99.90
8248;DHT22;4164;49.844;8.830;2023-04-03T00:19:39;3.20;99.90
8248;DHT22;4164;49.844;8.830;2023-04-03T00:22:05;3.10;99.90
8248;DHT22;4164;49.844;8.830;2023-04-03T00:24:31;3.10;99.90
8248;DHT22;4164;49.844;8.830;2023-04-03T00:26:56;3.10;99.90
8248;DHT22;4164;49.844;8.830;2023-04-03T00:29:22;3.00;99.90
8248;DHT22;4164;49.844;8.830;2023-04-03T00:31:47;3.00;99.90
8248;DHT22;4164;49.844;8.830;2023-04-03T00:34:13;2.80;99.90
8248;DHT22;4164;49.844;8.830;2023-04-03T00:36:38;2.70;99.90
8248;DHT22;4164;49.844;8.830;2023-04-03T00:39:04;2.80;99.90
8248;DHT22;4164;49.844;8.830;2023-04-03T00:41:30;2.80;99.90
8248;DHT22;4164;49.844;8.830;2023-04-03T00:43:55;2.80;99.90
8248;DHT22;4164;49.844;8.830;2023-04-03T00:46:21;2.80;99.90
8248;DHT22;4164;49.844;8.830;2023-04-03T00:48:48;2.80;99.90
8248;DHT22;4164;49.844;8.830;2023-04-03T00:51:20;2.80;99.90
8248;DHT22;4164;49.844;8.830;2023-04-03T00:53:50;2.70;99.90
8248;DHT22;4164;49.844;8.830;2023-04-03T00:56:20;2.70;99.90
8248;DHT22;4164;49.844;8.830;2023-04-03T00:58:53;2.60;99.90
8248;DHT22;4164;49.844;8.830;2023-04-03T01:01:26;2.50;99.90
8248;DHT22;4164;49.844;8.830;2023-04-03T01:03:52;2.50;99.90
8248;DHT22;4164;49.844;8.830;2023-04-03T01:06:21;2.60;99.90
8248;DHT22;4164;49.844;8.830;2023-04-03T01:08:49;2.80;99.90
8248;DHT22;4164;49.844;8.830;2023-04-03T01:11:15;2.90;99.90
8248;DHT22;4164;49.844;8.830;2023-04-03T01:13:41;2.90;99.90
8248;DHT22;4164;49.844;8.830;2023-04-03T01:16:07;2.90;99.90
8248;DHT22;4164;49.844;8.830;2023-04-03T01:18:35;2.70;99.90
8248;DHT22;4164;49.844;8.830;2023-04-03T01:21:41;2.60;99.90
8248;DHT22;4164;49.844;8.830;2023-04-03T01:26:45;2.90;99.90
8248;DHT22;4164;49.844;8.830;2023-04-03T01:29:10;2.90;99.90
8248;DHT22;4164;49.844;8.830;2023-04-03T01:32:06;3.00;99.90
8248;DHT22;4164;49.844;8.830;2023-04-03T01:34:32;2.90;99.90
8248;DHT22;4164;49.844;8.830;2023-04-03T01:36:58;2.80;99.90
8248;DHT22;4164;49.844;8.830;2023-04-03T01:39:23;3.00;99.90
8248;DHT22;4164;49.844;8.830;2023-04-03T01:41:49;3.00;99.90
8248;DHT22;4164;49.844;8.830;2023-04-03T01:44:15;3.00;99.90
8248;DHT22;4164;49.844;8.830;2023-04-03T01:46:41;3.10;99.90
8248;DHT22;4164;49.844;8.830;2023-04-03T01:49:07;3.00;99.90
8248;DHT22;4164;49.844;8.830;2023-04-03T01:51:33;3.00;99.90
8248;DHT22;4164;49.844;8.830;2023-04-03T01:53:59;2.90;99.90
8248;DHT22;4164;49.844;8.830;2023-04-03T01:56:24;3.00;99.90
8248;DHT22;4164;49.844;8.830;2023-04-03T01:58:50;3.00;99.90
8248;DHT22;4164;49.844;8.830;2023-04-03T02:01:16;3.00;99.90
8248;DHT22;4164;49.844;8.830;2023-04-03T02:03:42;3.10;99.90
8248;DHT22;4164;49.844;8.830;2023-04-03T02:06:07;2.90;99.90
8248;DHT22;4164;49.844;8.830;2023-04-03T02:08:33;2.80;99.90
8248;DHT22;4164;49.844;8.830;2023-04-03T02:10:58;2.60;99.90
8248;DHT22;4164;49.844;8.830;2023-04-03T02:13:24;2.70;99.90
8248;DHT22;4164;49.844;8.830;2023-04-03T02:15:50;2.90;99.90
8248;DHT22;4164;49.844;8.830;2023-04-03T02:18:16;2.90;99.90
8248;DHT22;4164;49.844;8.830;2023-04-03T02:20:42;2.90;99.90
8248;DHT22;4164;49.844;8.830;2023-04-03T02:23:07;2.80;99.90
8248;DHT22;4164;49.844;8.830;2023-04-03T02:25:33;2.80;99.90
8248;DHT22;4164;49.844;8.830;2023-04-03T02:27:59;3.00;99.90
8248;DHT22;4164;49.844;8.830;2023-04-03T02:30:25;3.00;99.90
8248;DHT22;4164;49.844;8.830;2023-04-03T02:32:50;2.90;99.90
8248;DHT22;4164;49.844;8.830;2023-04-03T02:35:16;2.80;99.90
8248;DHT22;4164;49.844;8.830;2023-04-03T02:37:41;3.00;99.90
8248;DHT22;4164;49.844;8.830;2023-04-03T02:40:08;2.90;99.90
8248;DHT22;4164;49.844;8.830;2023-04-03T02:42:34;2.90;99.90
8248;DHT22;4164;49.844;8.830;2023-04-03T02:44:59;3.00;99.90
8248;DHT22;4164;49.844;8.830;2023-04-03T02:47:28;3.00;99.90
8248;DHT22;4164;49.844;8.830;2023-04-03T02:49:53;2.90;99.90
8248;DHT22;4164;49.844;8.830;2023-04-03T02:52:20;3.00;99.90
8248;DHT22;4164;49.844;8.830;2023-04-03T02:54:45;3.10;99.90
8248;DHT22;4164;49.844;8.830;2023-04-03T02:57:11;3.00;99.90
8248;DHT22;4164;49.844;8.830;2023-04-03T02:59:37;3.10;99.90
8248;DHT22;4164;49.844;8.830;2023-04-03T03:02:06;3.00;99.90
8248;DHT22;4164;49.844;8.830;2023-04-03T03:04:32;3.00;99.90
8248;DHT22;4164;49.844;8.830;2023-04-03T03:06:58;2.90;99.90
8248;DHT22;4164;49.844;8.830;2023-04-03T03:09:23;2.80;99.90
8248;DHT22;4164;49.844;8.830;2023-04-03T03:11:49;2.80;99.90
8248;DHT22;4164;49.844;8.830;2023-04-03T03:14:14;2.90;99.90
8248;DHT22;4164;49.844;8.830;2023-04-03T03:16:40;2.80;99.90
8248;DHT22;4164;49.844;8.830;2023-04-03T03:19:05;2.80;99.90
8248;DHT22;4164;49.844;8.830;2023-04-03T03:21:32;2.80;99.90
8248;DHT22;4164;49.844;8.830;2023-04-03T03:23:57;3.00;99.90
8248;DHT22;4164;49.844;8.830;2023-04-03T03:26:23;3.00;99.90
8248;DHT22;4164;49.844;8.830;2023-04-03T03:28:49;3.00;99.90
8248;DHT22;4164;49.844;8.830;2023-04-03T03:31:14;3.00;99.90
8248;DHT22;4164;49.844;8.830;2023-04-03T03:33:40;2.90;99.90
8248;DHT22;4164;49.844;8.830;2023-04-03T03:36:06;2.90;99.90
8248;DHT22;4164;49.844;8.830;2023-04-03T03:38:32;2.90;99.90
8248;DHT22;4164;49.844;8.830;2023-04-03T03:40:57;2.80;99.90
8248;DHT22;4164;49.844;8.830;2023-04-03T03:43:23;2.60;99.90
8248;DHT22;4164;49.844;8.830;2023-04-03T03:45:52;2.70;99.90
8248;DHT22;4164;49.844;8.830;2023-04-03T03:48:19;2.80;99.90
8248;DHT22;4164;49.844;8.830;2023-04-03T03:50:45;2.80;99.90
8248;DHT22;4164;49.844;8.830;2023-04-03T03:53:10;2.80;99.90
8248;DHT22;4164;49.844;8.830;2023-04-03T03:55:36;2.80;99.90
8248;DHT22;4164;49.844;8.830;2023-04-03T03:58:01;2.80;99.90
8248;DHT22;4164;49.844;8.830;2023-04-03T04:00:27;2.70;99.90
8248;DHT22;4164;49.844;8.830;2023-04-03T04:02:53;2.70;99.90
8248;DHT22;4164;49.844;8.830;2023-04-03T04:05:19;2.70;99.90
8248;DHT22;4164;49.844;8.830;2023-04-03T04:07:45;2.60;99.90
8248;DHT22;4164;49.844;8.830;2023-04-03T04:10:10;2.70;99.90
8248;DHT22;4164;49.844;8.830;2023-04-03T04:12:36;2.50;99.90
8248;DHT22;4164;49.844;8.830;2023-04-03T04:15:02;2.50;99.90
8248;DHT22;4164;49.844;8.830;2023-04-03T04:17:28;2.60;99.90
8248;DHT22;4164;49.844;8.830;2023-04-03T04:19:53;2.60;99.90
8248;DHT22;4164;49.844;8.830;2023-04-03T04:22:19;2.60;99.90
8248;DHT22;4164;49.844;8.830;2023-04-03T04:24:45;2.60;99.90
8248;DHT22;4164;49.844;8.830;2023-04-03T04:27:10;2.50;99.90
8248;DHT22;4164;49.844;8.830;2023-04-03T04:29:36;2.50;99.90
8248;DHT22;4164;49.844;8.830;2023-04-03T04:32:03;2.50;99.90
8248;DHT22;4164;49.844;8.830;2023-04-03T04:34:29;2.40;99.90
8248;DHT22;4164;49.844;8.830;2023-04-03T04:36:55;2.40;99.90
8248;DHT22;4164;49.844;8.830;2023-04-03T04:39:20;2.40;99.90
8248;DHT22;4164;49.844;8.830;2023-04-03T04:41:46;2.50;99.90
8248;DHT22;4164;49.844;8.830;2023-04-03T04:44:12;2.50;99.90
8248;DHT22;4164;49.844;8.830;2023-04-03T04:46:37;2.30;99.90
8248;DHT22;4164;49.844;8.830;2023-04-03T04:49:06;2.20;99.90
8248;DHT22;4164;49.844;8.830;2023-04-03T04:51:31;2.10;99.90
8248;DHT22;4164;49.844;8.830;2023-04-03T04:53:57;2.00;99.90
8248;DHT22;4164;49.844;8.830;2023-04-03T04:56:22;2.10;99.90
8248;DHT22;4164;49.844;8.830;2023-04-03T04:58:48;2.50;99.90
8248;DHT22;4164;49.844;8.830;2023-04-03T05:01:13;2.70;99.90
8248;DHT22;4164;49.844;8.830;2023-04-03T05:03:39;2.80;99.90
8248;DHT22;4164;49.844;8.830;2023-04-03T05:06:05;2.90;99.90
8248;DHT22;4164;49.844;8.830;2023-04-03T05:08:31;3.00;99.90
8248;DHT22;4164;49.844;8.830;2023-04-03T05:10:57;3.00;99.90
8248;DHT22;4164;49.844;8.830;2023-04-03T05:13:22;2.90;99.90
8248;DHT22;4164;49.844;8.830;2023-04-03T05:15:48;3.00;99.90
8248;DHT22;4164;49.844;8.830;2023-04-03T05:18:14;3.00;99.90
8248;DHT22;4164;49.844;8.830;2023-04-03T05:20:39;3.00;99.90
8248;DHT22;4164;49.844;8.830;2023-04-03T05:23:05;2.60;99.90
8248;DHT22;4164;49.844;8.830;2023-04-03T05:25:31;2.50;99.90
8248;DHT22;4164;49.844;8.830;2023-04-03T05:27:56;2.90;99.90
8248;DHT22;4164;49.844;8.830;2023-04-03T05:30:22;3.10;99.90
8248;DHT22;4164;49.844;8.830;2023-04-03T05:32:48;3.30;99.90
8248;DHT22;4164;49.844;8.830;2023-04-03T05:35:13;3.40;99.90
8248;DHT22;4164;49.844;8.830;2023-04-03T05:37:39;3.50;99.90
8248;DHT22;4164;49.844;8.830;2023-04-03T05:40:05;3.60;99.90
8248;DHT22;4164;49.844;8.830;2023-04-03T05:42:31;3.50;99.90
8248;DHT22;4164;49.844;8.830;2023-04-03T05:44:57;3.60;99.90
8248;DHT22;4164;49.844;8.830;2023-04-03T05:47:23;3.80;99.90
8248;DHT22;4164;49.844;8.830;2023-04-03T05:49:48;3.70;99.90
8248;DHT22;4164;49.844;8.830;2023-04-03T05:52:21;3.80;99.90
8248;DHT22;4164;49.844;8.830;2023-04-03T05:54:47;3.80;99.90
8248;DHT22;4164;49.844;8.830;2023-04-03T05:57:14;3.90;99.90
8248;DHT22;4164;49.844;8.830;2023-04-03T05:59:42;3.80;99.90
8248;DHT22;4164;49.844;8.830;2023-04-03T06:02:10;3.90;99.90
8248;DHT22;4164;49.844;8.830;2023-04-03T06:04:36;3.90;99.90
8248;DHT22;4164;49.844;8.830;2023-04-03T06:07:02;3.80;99.90
8248;DHT22;4164;49.844;8.830;2023-04-03T06:09:28;3.90;99.90
8248;DHT22;4164;49.844;8.830;2023-04-03T06:11:54;3.90;99.90
8248;DHT22;4164;49.844;8.830;2023-04-03T06:14:20;4.00;99.90
8248;DHT22;4164;49.844;8.830;2023-04-03T06:16:45;4.20;99.90
8248;DHT22;4164;49.844;8.830;2023-04-03T06:19:11;4.20;99.90
8248;DHT22;4164;49.844;8.830;2023-04-03T06:21:38;4.30;99.90
8248;DHT22;4164;49.844;8.830;2023-04-03T06:24:04;4.30;99.90
8248;DHT22;4164;49.844;8.830;2023-04-03T06:26:30;4.30;99.90
8248;DHT22;4164;49.844;8.830;2023-04-03T06:28:56;4.40;99.90
8248;DHT22;4164;49.844;8.830;2023-04-03T06:31:22;4.60;99.90
8248;DHT22;4164;49.844;8.830;2023-04-03T06:33:47;4.60;99.90
8248;DHT22;4164;49.844;8.830;2023-04-03T06:36:13;4.50;99.90
8248;DHT22;4164;49.844;8.830;2023-04-03T06:38:38;4.70;99.90
8248;DHT22;4164;49.844;8.830;2023-04-03T06:41:04;4.90;99.90
8248;DHT22;4164;49.844;8.830;2023-04-03T06:43:30;5.10;99.90
8248;DHT22;4164;49.844;8.830;2023-04-03T06:45:56;5.20;99.90
8248;DHT22;4164;49.844;8.830;2023-04-03T06:48:22;5.50;99.90
8248;DHT22;4164;49.844;8.830;2023-04-03T06:50:48;5.50;99.90
8248;DHT22;4164;49.844;8.830;2023-04-03T06:53:14;5.60;99.90
8248;DHT22;4164;49.844;8.830;2023-04-03T06:55:40;5.50;99.90
8248;DHT22;4164;49.844;8.830;2023-04-03T06:58:06;5.60;99.90
8248;DHT22;4164;49.844;8.830;2023-04-03T07:00:32;5.70;99.90
8248;DHT22;4164;49.844;8.830;2023-04-03T07:02:57;5.70;99.90
8248;DHT22;4164;49.844;8.830;2023-04-03T07:05:24;5.80;99.90
8248;DHT22;4164;49.844;8.830;2023-04-03T07:07:50;5.90;99.90
8248;DHT22;4164;49.844;8.830;2023-04-03T07:10:16;5.80;99.90
8248;DHT22;4164;49.844;8.830;2023-04-03T07:12:41;5.80;99.90
8248;DHT22;4164;49.844;8.830;2023-04-03T07:15:08;5.70;99.90
8248;DHT22;4164;49.844;8.830;2023-04-03T07:17:34;5.80;99.90
8248;DHT22;4164;49.844;8.830;2023-04-03T07:19:59;5.90;99.90
8248;DHT22;4164;49.844;8.830;2023-04-03T07:22:25;5.90;99.90
8248;DHT22;4164;49.844;8.830;2023-04-03T07:24:50;6.00;99.90
8248;DHT22;4164;49.844;8.830;2023-04-03T07:27:16;6.00;99.90
8248;DHT22;4164;49.844;8.830;2023-04-03T07:29:43;6.10;99.90
8248;DHT22;4164;49.844;8.830;2023-04-03T07:32:09;5.90;99.90
8248;DHT22;4164;49.844;8.830;2023-04-03T07:34:35;5.90;99.90
8248;DHT22;4164;49.844;8.830;2023-04-03T07:37:01;5.90;99.90
8248;DHT22;4164;49.844;8.830;2023-04-03T07:39:28;6.10;99.90
8248;DHT22;4164;49.844;8.830;2023-04-03T07:41:53;6.30;99.90
8248;DHT22;4164;49.844;8.830;2023-04-03T07:44:20;6.50;99.90
8248;DHT22;4164;49.844;8.830;2023-04-03T07:46:46;6.50;99.90
8248;DHT22;4164;49.844;8.830;2023-04-03T07:49:12;6.60;99.90
8248;DHT22;4164;49.844;8.830;2023-04-03T07:51:38;6.60;99.90
8248;DHT22;4164;49.844;8.830;2023-04-03T07:54:03;6.70;99.90
8248;DHT22;4164;49.844;8.830;2023-04-03T07:56:29;6.90;99.90
8248;DHT22;4164;49.844;8.830;2023-04-03T07:58:55;6.80;99.90
8248;DHT22;4164;49.844;8.830;2023-04-03T08:01:20;7.00;99.90
8248;DHT22;4164;49.844;8.830;2023-04-03T08:03:46;6.90;99.90
8248;DHT22;4164;49.844;8.830;2023-04-03T08:06:11;7.00;99.90
8248;DHT22;4164;49.844;8.830;2023-04-03T08:08:38;6.80;99.90
8248;DHT22;4164;49.844;8.830;2023-04-03T08:11:04;6.80;99.90
8248;DHT22;4164;49.844;8.830;2023-04-03T08:13:31;6.80;99.90
8248;DHT22;4164;49.844;8.830;2023-04-03T08:15:57;6.80;99.90
8248;DHT22;4164;49.844;8.830;2023-04-03T08:18:24;7.10;99.90
8248;DHT22;4164;49.844;8.830;2023-04-03T08:20:51;7.10;99.90
8248;DHT22;4164;49.844;8.830;2023-04-03T08:23:18;7.00;99.90
8248;DHT22;4164;49.844;8.830;2023-04-03T08:25:44;7.10;99.90
8248;DHT22;4164;49.844;8.830;2023-04-03T08:28:11;7.10;99.90
8248;DHT22;4164;49.844;8.830;2023-04-03T08:30:40;7.50;99.90
8248;DHT22;4164;49.844;8.830;2023-04-03T08:33:08;7.60;99.90
8248;DHT22;4164;49.844;8.830;2023-04-03T08:35:38;7.60;99.90
8248;DHT22;4164;49.844;8.830;2023-04-03T08:38:04;7.50;99.90
8248;DHT22;4164;49.844;8.830;2023-04-03T08:40:29;7.70;99.90
8248;DHT22;4164;49.844;8.830;2023-04-03T08:45:50;8.30;99.90
8248;DHT22;4164;49.844;8.830;2023-04-03T08:48:36;7.80;99.90
8248;DHT22;4164;49.844;8.830;2023-04-03T08:51:13;7.50;99.90
8248;DHT22;4164;49.844;8.830;2023-04-03T08:53:44;7.50;99.90
8248;DHT22;4164;49.844;8.830;2023-04-03T08:56:13;7.60;99.90
8248;DHT22;4164;49.844;8.830;2023-04-03T08:58:49;8.00;99.90
8248;DHT22;4164;49.844;8.830;2023-04-03T09:01:41;8.20;99.70
8248;DHT22;4164;49.844;8.830;2023-04-03T09:04:13;8.70;98.10
8248;DHT22;4164;49.844;8.830;2023-04-03T09:06:39;9.10;97.90
8248;DHT22;4164;49.844;8.830;2023-04-03T09:09:30;9.00;96.30
8248;DHT22;4164;49.844;8.830;2023-04-03T09:12:12;8.60;96.20
8248;DHT22;4164;49.844;8.830;2023-04-03T09:15:19;9.20;96.50
8248;DHT22;4164;49.844;8.830;2023-04-03T09:17:48;9.30;94.30
8248;DHT22;4164;49.844;8.830;2023-04-03T09:20:25;9.30;92.40
8248;DHT22;4164;49.844;8.830;2023-04-03T09:22:52;8.90;95.50
8248;DHT22;4164;49.844;8.830;2023-04-03T09:25:33;9.20;96.00
8248;DHT22;4164;49.844;8.830;2023-04-03T09:28:00;9.10;93.40
8248;DHT22;4164;49.844;8.830;2023-04-03T09:30:27;8.70;93.30
8248;DHT22;4164;49.844;8.830;2023-04-03T09:32:55;8.40;94.30
8248;DHT22;4164;49.844;8.830;2023-04-03T09:35:31;8.20;94.10
8248;DHT22;4164;49.844;8.830;2023-04-03T09:38:21;8.30;91.90
8248;DHT22;4164;49.844;8.830;2023-04-03T09:40:50;8.20;93.40
8248;DHT22;4164;49.844;8.830;2023-04-03T09:43:31;8.50;93.60
8248;DHT22;4164;49.844;8.830;2023-04-03T09:46:28;8.90;94.10
8248;DHT22;4164;49.844;8.830;2023-04-03T09:49:05;9.00;94.30
8248;DHT22;4164;49.844;8.830;2023-04-03T09:51:32;9.10;94.20
8248;DHT22;4164;49.844;8.830;2023-04-03T09:53:58;8.90;93.70
8248;DHT22;4164;49.844;8.830;2023-04-03T09:56:28;9.20;95.40
8248;DHT22;4164;49.844;8.830;2023-04-03T10:01:37;8.70;95.70
8248;DHT22;4164;49.844;8.830;2023-04-03T10:04:13;8.70;95.70
8248;DHT22;4164;49.844;8.830;2023-04-03T10:06:53;8.90;96.00
8248;DHT22;4164;49.844;8.830;2023-04-03T10:09:31;8.80;94.60
8248;DHT22;4164;49.844;8.830;2023-04-03T10:14:31;8.20;97.20
8248;DHT22;4164;49.844;8.830;2023-04-03T10:17:05;9.00;96.20
8248;DHT22;4164;49.844;8.830;2023-04-03T10:19:57;9.30;95.70
8248;DHT22;4164;49.844;8.830;2023-04-03T10:25:33;9.10;94.80
8248;DHT22;4164;49.844;8.830;2023-04-03T10:28:22;8.60;94.30
8248;DHT22;4164;49.844;8.830;2023-04-03T10:45:21;9.90;91.30
8248;DHT22;4164;49.844;8.830;2023-04-03T10:48:18;9.90;91.00
8248;DHT22;4164;49.844;8.830;2023-04-03T10:53:57;9.70;90.40
8248;DHT22;4164;49.844;8.830;2023-04-03T10:58:58;10.30;85.30
8248;DHT22;4164;49.844;8.830;2023-04-03T11:01:31;12.20;84.50
8248;DHT22;4164;49.844;8.830;2023-04-03T11:03:59;11.50;83.60
8248;DHT22;4164;49.844;8.830;2023-04-03T11:06:34;10.60;83.80
8248;DHT22;4164;49.844;8.830;2023-04-03T11:11:39;9.80;82.60
8248;DHT22;4164;49.844;8.830;2023-04-03T11:14:18;13.50;83.60
8248;DHT22;4164;49.844;8.830;2023-04-03T11:16:53;15.10;68.00
8248;DHT22;4164;49.844;8.830;2023-04-03T11:19:46;13.20;72.30
8248;DHT22;4164;49.844;8.830;2023-04-03T11:22:35;11.90;72.30
8248;DHT22;4164;49.844;8.830;2023-04-03T11:27:44;10.50;70.60
8248;DHT22;4164;49.844;8.830;2023-04-03T11:30:20;10.00;71.20
8248;DHT22;4164;49.844;8.830;2023-04-03T11:33:10;13.80;74.10
8248;DHT22;4164;49.844;8.830;2023-04-03T11:35:46;18.40;66.20
8248;DHT22;4164;49.844;8.830;2023-04-03T11:38:25;21.00;51.00
8248;DHT22;4164;49.844;8.830;2023-04-03T11:40:52;18.00;49.80
8248;DHT22;4164;49.844;8.830;2023-04-03T11:43:25;18.80;52.40
8248;DHT22;4164;49.844;8.830;2023-04-03T11:46:05;21.20;48.70
8248;DHT22;4164;49.844;8.830;2023-04-03T11:53:37;22.10;42.10
8248;DHT22;4164;49.844;8.830;2023-04-03T11:56:26;22.00;42.70
8248;DHT22;4164;49.844;8.830;2023-04-03T11:59:16;21.50;38.70
8248;DHT22;4164;49.844;8.830;2023-04-03T12:01:51;16.70;44.10
8248;DHT22;4164;49.844;8.830;2023-04-03T12:04:25;14.30;46.10
8248;DHT22;4164;49.844;8.830;2023-04-03T12:06:59;15.20;49.80
8248;DHT22;4164;49.844;8.830;2023-04-03T12:11:51;17.10;44.30
8248;DHT22;4164;49.844;8.830;2023-04-03T12:14:17;19.10;44.70
8248;DHT22;4164;49.844;8.830;2023-04-03T12:16:46;20.30;41.00
8248;DHT22;4164;49.844;8.830;2023-04-03T12:24:27;17.10;43.20
8248;DHT22;4164;49.844;8.830;2023-04-03T12:29:29;17.80;43.40
8248;DHT22;4164;49.844;8.830;2023-04-03T12:46:09;19.90;36.50
8248;DHT22;4164;49.844;8.830;2023-04-03T12:48:50;18.50;37.50
8248;DHT22;4164;49.844;8.830;2023-04-03T12:53:49;23.00;34.40
8248;DHT22;4164;49.844;8.830;2023-04-03T12:56:21;23.50;34.30
8248;DHT22;4164;49.844;8.830;2023-04-03T12:58:48;24.00;33.60
8248;DHT22;4164;49.844;8.830;2023-04-03T13:01:17;24.50;33.90
8248;DHT22;4164;49.844;8.830;2023-04-03T13:03:45;24.60;31.70
8248;DHT22;4164;49.844;8.830;2023-04-03T13:06:28;24.90;32.70
8248;DHT22;4164;49.844;8.830;2023-04-03T13:09:00;24.80;32.30
8248;DHT22;4164;49.844;8.830;2023-04-03T13:11:40;25.90;30.20
8248;DHT22;4164;49.844;8.830;2023-04-03T13:14:19;24.70;30.80
8248;DHT22;4164;49.844;8.830;2023-04-03T13:17:09;24.40;31.10
8248;DHT22;4164;49.844;8.830;2023-04-03T13:19:35;24.20;34.00
8248;DHT22;4164;49.844;8.830;2023-04-03T13:22:05;23.90;30.70
8248;DHT22;4164;49.844;8.830;2023-04-03T13:24:36;22.40;33.70
8248;DHT22;4164;49.844;8.830;2023-04-03T13:27:04;20.70;32.90
8248;DHT22;4164;49.844;8.830;2023-04-03T13:29:35;20.20;32.70
8248;DHT22;4164;49.844;8.830;2023-04-03T13:32:03;21.70;32.60
8248;DHT22;4164;49.844;8.830;2023-04-03T13:34:37;22.70;30.30
8248;DHT22;4164;49.844;8.830;2023-04-03T13:37:04;23.30;30.70
8248;DHT22;4164;49.844;8.830;2023-04-03T13:39:38;22.10;33.50
8248;DHT22;4164;49.844;8.830;2023-04-03T13:42:20;22.00;32.40
8248;DHT22;4164;49.844;8.830;2023-04-03T13:44:47;22.60;29.70
8248;DHT22;4164;49.844;8.830;2023-04-03T13:50:04;24.00;30.00
8248;DHT22;4164;49.844;8.830;2023-04-03T13:53:08;23.50;30.00
8248;DHT22;4164;49.844;8.830;2023-04-03T13:55:39;23.00;31.50
8248;DHT22;4164;49.844;8.830;2023-04-03T13:58:31;22.00;32.20
8248;DHT22;4164;49.844;8.830;2023-04-03T14:01:06;21.00;31.40
8248;DHT22;4164;49.844;8.830;2023-04-03T14:03:44;23.00;32.70
8248;DHT22;4164;49.844;8.830;2023-04-03T14:06:15;22.30;32.80
8248;DHT22;4164;49.844;8.830;2023-04-03T14:08:42;21.40;31.50
8248;DHT22;4164;49.844;8.830;2023-04-03T14:11:22;22.40;33.50
8248;DHT22;4164;49.844;8.830;2023-04-03T14:13:50;21.30;32.60
8248;DHT22;4164;49.844;8.830;2023-04-03T14:16:18;19.70;32.70
8248;DHT22;4164;49.844;8.830;2023-04-03T14:18:45;19.80;34.00
8248;DHT22;4164;49.844;8.830;2023-04-03T14:21:13;18.60;34.00
8248;DHT22;4164;49.844;8.830;2023-04-03T14:23:39;17.90;36.20
8248;DHT22;4164;49.844;8.830;2023-04-03T14:26:11;16.00;35.10
8248;DHT22;4164;49.844;8.830;2023-04-03T14:28:37;14.70;39.00
8248;DHT22;4164;49.844;8.830;2023-04-03T14:31:05;13.00;39.10
8248;DHT22;4164;49.844;8.830;2023-04-03T14:33:30;12.10;40.80
8248;DHT22;4164;49.844;8.830;2023-04-03T14:36:00;11.30;41.40
8248;DHT22;4164;49.844;8.830;2023-04-03T14:38:29;11.10;44.80
8248;DHT22;4164;49.844;8.830;2023-04-03T14:40:56;11.00;45.70
8248;DHT22;4164;49.844;8.830;2023-04-03T14:43:23;11.20;42.00
8248;DHT22;4164;49.844;8.830;2023-04-03T14:45:49;10.90;43.30
8248;DHT22;4164;49.844;8.830;2023-04-03T14:48:20;10.80;44.30
8248;DHT22;4164;49.844;8.830;2023-04-03T14:50:46;10.70;47.10
8248;DHT22;4164;49.844;8.830;2023-04-03T14:53:13;10.40;45.50
8248;DHT22;4164;49.844;8.830;2023-04-03T14:55:46;10.30;45.40
8248;DHT22;4164;49.844;8.830;2023-04-03T14:58:18;10.20;46.50
8248;DHT22;4164;49.844;8.830;2023-04-03T15:00:44;10.10;45.30
8248;DHT22;4164;49.844;8.830;2023-04-03T15:03:21;10.20;46.40
8248;DHT22;4164;49.844;8.830;2023-04-03T15:05:48;10.10;45.70
8248;DHT22;4164;49.844;8.830;2023-04-03T15:08:19;9.90;46.60
8248;DHT22;4164;49.844;8.830;2023-04-03T15:10:46;9.90;46.50
8248;DHT22;4164;49.844;8.830;2023-04-03T15:13:12;10.00;48.10
8248;DHT22;4164;49.844;8.830;2023-04-03T15:15:38;9.90;46.00
8248;DHT22;4164;49.844;8.830;2023-04-03T15:18:04;9.90;48.20
8248;DHT22;4164;49.844;8.830;2023-04-03T15:20:30;9.90;46.70
8248;DHT22;4164;49.844;8.830;2023-04-03T15:22:58;10.00;46.60
8248;DHT22;4164;49.844;8.830;2023-04-03T15:25:26;9.90;46.70
8248;DHT22;4164;49.844;8.830;2023-04-03T15:27:53;10.00;46.60
8248;DHT22;4164;49.844;8.830;2023-04-03T15:30:19;10.00;47.20
8248;DHT22;4164;49.844;8.830;2023-04-03T15:32:46;10.00;44.80
8248;DHT22;4164;49.844;8.830;2023-04-03T15:35:13;10.00;46.10
8248;DHT22;4164;49.844;8.830;2023-04-03T15:37:38;10.00;45.00
8248;DHT22;4164;49.844;8.830;2023-04-03T15:40:05;10.00;45.90
8248;DHT22;4164;49.844;8.830;2023-04-03T15:42:31;9.70;46.30
8248;DHT22;4164;49.844;8.830;2023-04-03T15:44:56;9.60;44.60
8248;DHT22;4164;49.844;8.830;2023-04-03T15:47:22;9.40;43.50
8248;DHT22;4164;49.844;8.830;2023-04-03T15:49:49;9.10;43.80
8248;DHT22;4164;49.844;8.830;2023-04-03T15:52:15;9.00;45.10
8248;DHT22;4164;49.844;8.830;2023-04-03T15:54:40;9.20;46.20
8248;DHT22;4164;49.844;8.830;2023-04-03T15:57:06;9.40;47.50
8248;DHT22;4164;49.844;8.830;2023-04-03T15:59:31;9.40;47.00
8248;DHT22;4164;49.844;8.830;2023-04-03T16:01:58;9.10;45.10
8248;DHT22;4164;49.844;8.830;2023-04-03T16:04:24;9.10;44.30
8248;DHT22;4164;49.844;8.830;2023-04-03T16:06:50;8.90;46.70
8248;DHT22;4164;49.844;8.830;2023-04-03T16:09:16;8.80;46.30
8248;DHT22;4164;49.844;8.830;2023-04-03T16:11:41;8.70;45.30
8248;DHT22;4164;49.844;8.830;2023-04-03T16:14:08;8.80;47.80
8248;DHT22;4164;49.844;8.830;2023-04-03T16:16:35;8.70;49.00
8248;DHT22;4164;49.844;8.830;2023-04-03T16:19:01;8.70;50.30
8248;DHT22;4164;49.844;8.830;2023-04-03T16:21:27;8.70;50.20
8248;DHT22;4164;49.844;8.830;2023-04-03T16:23:53;8.70;49.70
8248;DHT22;4164;49.844;8.830;2023-04-03T16:26:18;8.60;49.20
8248;DHT22;4164;49.844;8.830;2023-04-03T16:28:45;8.60;50.60
8248;DHT22;4164;49.844;8.830;2023-04-03T16:31:11;8.60;51.00
8248;DHT22;4164;49.844;8.830;2023-04-03T16:33:36;8.70;50.90
8248;DHT22;4164;49.844;8.830;2023-04-03T16:36:04;8.70;50.70
8248;DHT22;4164;49.844;8.830;2023-04-03T16:38:30;8.70;49.90
8248;DHT22;4164;49.844;8.830;2023-04-03T16:40:55;8.60;50.70
8248;DHT22;4164;49.844;8.830;2023-04-03T16:43:25;8.40;51.50
8248;DHT22;4164;49.844;8.830;2023-04-03T16:45:50;8.30;53.50
8248;DHT22;4164;49.844;8.830;2023-04-03T16:48:16;8.30;50.80
8248;DHT22;4164;49.844;8.830;2023-04-03T16:50:41;8.20;50.80
8248;DHT22;4164;49.844;8.830;2023-04-03T16:53:07;8.20;50.90
8248;DHT22;4164;49.844;8.830;2023-04-03T16:55:35;8.10;50.80
8248;DHT22;4164;49.844;8.830;2023-04-03T16:58:01;8.10;51.90
8248;DHT22;4164;49.844;8.830;2023-04-03T17:00:29;8.10;52.20
8248;DHT22;4164;49.844;8.830;2023-04-03T17:02:55;8.00;52.20
8248;DHT22;4164;49.844;8.830;2023-04-03T17:05:20;7.80;52.50
8248;DHT22;4164;49.844;8.830;2023-04-03T17:07:46;7.80;51.70
8248;DHT22;4164;49.844;8.830;2023-04-03T17:10:12;7.80;52.20
8248;DHT22;4164;49.844;8.830;2023-04-03T17:12:38;7.80;54.00
8248;DHT22;4164;49.844;8.830;2023-04-03T17:15:04;7.70;52.70
8248;DHT22;4164;49.844;8.830;2023-04-03T17:17:30;7.60;52.50
8248;DHT22;4164;49.844;8.830;2023-04-03T17:19:56;7.40;53.60
8248;DHT22;4164;49.844;8.830;2023-04-03T17:22:22;7.40;55.00
8248;DHT22;4164;49.844;8.830;2023-04-03T17:24:47;7.30;53.80
8248;DHT22;4164;49.844;8.830;2023-04-03T17:27:13;7.20;53.10
8248;DHT22;4164;49.844;8.830;2023-04-03T17:29:38;7.20;54.50
8248;DHT22;4164;49.844;8.830;2023-04-03T17:32:04;7.10;54.60
8248;DHT22;4164;49.844;8.830;2023-04-03T17:34:30;7.00;55.10
8248;DHT22;4164;49.844;8.830;2023-04-03T17:36:55;6.90;55.20